Time;durP1;ratioP1;P1;durP2;ratioP2;P2;SDS_P1;SDS_P2;PMS_P1;PMS_P2;Temp;Humidity;BMP_temperature;BMP_pressure;BME280_temperature;BME280_humidity;BME280_pressure;Samples;Min_cycle;Max_cycle;Signal;HPM_P1;HPM_P2
2021/07/06 00:00:14;;;;;;;;;;;;;;;15.90;100.00;95615.13;1050016;28;19950;-73
2021/07/06 00:00:45;;;;;;;;;;;;;;;15.92;100.00;95606.72;1050028;28;19916;-72
2021/07/06 00:01:15;;;;;;;;;;;;;;;15.95;100.00;95612.28;1049894;28;20372;-72
2021/07/06 00:01:45;;;;;;;;;;;;;;;15.91;100.00;95605.91;1050137;28;20004;-73
2021/07/06 00:02:16;;;;;;;;;;;;;;;15.89;100.00;95613.53;1050239;28;19908;-73
2021/07/06 00:02:49;;;;;;;;;;;;;;;15.90;100.00;95603.56;1050117;28;20342;-73
2021/07/06 00:03:19;;;;;;;;;;;;;;;15.91;100.00;95613.22;1049664;28;19914;-73
2021/07/06 00:03:49;;;;;;;;;;;;;;;15.88;100.00;95611.16;1049796;28;19915;-73
2021/07/06 00:04:20;;;;;;;;;;;;;;;15.88;100.00;95609.25;1049310;28;20518;-74
2021/07/06 00:04:58;;;;;;;;;;;;;;;15.86;100.00;95609.56;1049467;28;19912;-73
2021/07/06 00:05:28;;;;;;;;;;;;;;;15.86;100.00;95617.63;1049463;28;19962;-74
2021/07/06 00:05:59;;;;;;;;;;;;;;;15.86;100.00;95608.75;1048956;28;20439;-72
2021/07/06 00:06:29;;;;;;;;;;;;;;;15.86;100.00;95611.47;1049579;28;19955;-73
2021/07/06 00:06:59;;;;;;;;;;;;;;;15.85;100.00;95607.19;1049790;28;19917;-73
2021/07/06 00:07:29;;;;;;;;;;;;;;;15.83;100.00;95612.09;1049886;28;19942;-73
2021/07/06 00:08:00;;;;;;;;;;;;;;;15.83;100.00;95596.72;1049525;28;20281;-73
2021/07/06 00:08:30;;;;;;;;;;;;;;;15.85;100.00;95609.88;1049719;28;19917;-73
2021/07/06 00:09:02;;;;;;;;;;;;;;;15.86;100.00;95611.47;1049526;28;19913;-73
2021/07/06 00:09:32;;;;;;;;;;;;;;;15.86;100.00;95601.47;1049390;28;20471;-73
2021/07/06 00:10:04;;;;;;;;;;;;;;;15.88;100.00;95603.06;1049441;28;19916;-73
2021/07/06 00:10:35;;;;;;;;;;;;;;;15.86;100.00;95606.06;1049519;28;20559;-73
2021/07/06 00:11:06;;;;;;;;;;;;;;;15.88;100.00;95603.88;1049474;28;19913;-74
2021/07/06 00:11:36;;;;;;;;;;;;;;;15.90;100.00;95598.94;1049676;28;19908;-73
2021/07/06 00:12:06;;;;;;;;;;;;;;;15.89;100.00;95602.75;1049800;28;20318;-72
2021/07/06 00:12:37;;;;;;;;;;;;;;;15.90;100.00;95608.94;1049392;28;20381;-73
2021/07/06 00:13:07;;;;;;;;;;;;;;;15.88;100.00;95601.19;1049397;28;19916;-73
2021/07/06 00:13:37;;;;;;;;;;;;;;;15.85;100.00;95601.78;1049460;28;19939;-73
2021/07/06 00:14:07;;;;;;;;;;;;;;;15.87;100.00;95607.69;1049248;28;19913;-74
2021/07/06 00:14:38;;;;;;;;;;;;;;;15.86;100.00;95603.38;1049727;28;19934;-72
2021/07/06 00:15:08;;;;;;;;;;;;;;;15.85;100.00;95602.59;1049327;28;20323;-73
2021/07/06 00:15:39;;;;;;;;;;;;;;;15.84;100.00;95600.22;1049363;28;19912;-73
2021/07/06 00:16:09;;;;;;;;;;;;;;;15.87;100.00;95602.28;1049261;28;19908;-73
2021/07/06 00:16:39;;;;;;;;;;;;;;;15.89;100.00;95601.97;1045298;28;19913;-73
2021/07/06 00:17:10;;;;;;;;;;;;;;;15.85;100.00;95599.88;1049380;28;19908;-73
2021/07/06 00:17:40;;;;;;;;;;;;;;;15.88;100.00;95595.78;1049464;28;20008;-73
2021/07/06 00:18:10;;;;;;;;;;;;;;;15.88;100.00;95595.78;1049411;28;19962;-73
2021/07/06 00:18:41;;;;;;;;;;;;;;;15.87;100.00;95596.91;1049766;28;19959;-72
2021/07/06 00:19:11;;;;;;;;;;;;;;;15.85;100.00;95597.19;1049671;28;20419;-73
2021/07/06 00:19:41;;;;;;;;;;;;;;;15.84;100.00;95601.00;1049685;28;19960;-73
2021/07/06 00:20:12;;;;;;;;;;;;;;;15.85;100.00;95601.78;1049696;28;19935;-72
2021/07/06 00:20:42;;;;;;;;;;;;;;;15.86;100.00;95600.69;1050245;28;20058;-73
2021/07/06 00:21:12;;;;;;;;;;;;;;;15.81;100.00;95596.22;1050276;28;19908;-73
2021/07/06 00:21:43;;;;;;;;;;;;;;;15.81;100.00;95596.22;1050570;28;20276;-73
2021/07/06 00:22:13;;;;;;;;;;;;;;;15.83;100.00;95599.41;1050515;28;19919;-72
2021/07/06 00:22:43;;;;;;;;;;;;;;;15.83;100.00;95598.63;1050627;28;19970;-73
2021/07/06 00:23:13;;;;;;;;;;;;;;;15.83;100.00;95594.03;1050022;28;19920;-73
2021/07/06 00:23:44;;;;;;;;;;;;;;;15.82;100.00;95595.13;1049710;28;19923;-73
2021/07/06 00:24:14;;;;;;;;;;;;;;;15.83;100.00;95599.41;1049532;28;19916;-73
2021/07/06 00:24:46;;;;;;;;;;;;;;;15.83;100.00;95599.41;1049573;28;19927;-74
2021/07/06 00:25:16;;;;;;;;;;;;;;;15.85;100.00;95602.59;1049163;28;19920;-73
2021/07/06 00:25:47;;;;;;;;;;;;;;;15.85;100.00;95604.47;1049342;28;20285;-73
2021/07/06 00:26:20;;;;;;;;;;;;;;;15.84;100.00;95600.22;1049287;28;19912;-72
2021/07/06 00:26:50;;;;;;;;;;;;;;;15.86;100.00;95598.78;1049335;28;19924;-73
2021/07/06 00:27:20;;;;;;;;;;;;;;;15.88;100.00;95595.78;1049670;28;19913;-72
2021/07/06 00:27:51;;;;;;;;;;;;;;;15.89;100.00;95597.38;1049692;28;20289;-73
2021/07/06 00:28:23;;;;;;;;;;;;;;;15.84;100.00;95592.91;1049579;28;19913;-73
2021/07/06 00:28:53;;;;;;;;;;;;;;;15.82;100.00;95597.84;1049858;28;19917;-72
2021/07/06 00:29:23;;;;;;;;;;;;;;;15.83;100.00;95596.72;1049886;28;20270;-73
2021/07/06 00:29:54;;;;;;;;;;;;;;;15.84;100.00;95597.50;1049860;28;19917;-73
2021/07/06 00:30:24;;;;;;;;;;;;;;;15.82;100.00;95600.53;1049479;28;19962;-72
2021/07/06 00:30:54;;;;;;;;;;;;;;;15.79;100.00;95595.75;1049653;28;20556;-72
2021/07/06 00:31:25;;;;;;;;;;;;;;;15.79;100.00;95601.13;1049550;28;19944;-74
2021/07/06 00:31:55;;;;;;;;;;;;;;;15.80;100.00;95600.03;1049637;28;19917;-72
2021/07/06 00:32:25;;;;;;;;;;;;;;;15.81;100.00;95598.13;1049522;28;20353;-73
2021/07/06 00:32:56;;;;;;;;;;;;;;;15.80;100.00;95591.94;1049605;28;19952;-73
2021/07/06 00:33:30;;;;;;;;;;;;;;;15.77;100.00;95599.88;1049710;28;19913;-73
2021/07/06 00:34:01;;;;;;;;;;;;;;;15.74;100.00;95600.50;1050008;28;19913;-73
2021/07/06 00:34:31;;;;;;;;;;;;;;;15.76;100.00;95595.56;1049573;28;19912;-72
2021/07/06 00:35:01;;;;;;;;;;;;;;;15.78;100.00;95593.38;1049459;28;19924;-73
2021/07/06 00:35:32;;;;;;;;;;;;;;;15.75;100.00;95599.38;1049698;28;19925;-72
2021/07/06 00:36:02;;;;;;;;;;;;;;;15.75;100.00;95596.69;1049852;28;19910;-72
2021/07/06 00:36:32;;;;;;;;;;;;;;;15.70;100.00;95599.53;1049984;28;20471;-72
2021/07/06 00:37:03;;;;;;;;;;;;;;;15.70;100.00;95594.91;1049459;28;19927;-73
2021/07/06 00:37:33;;;;;;;;;;;;;;;15.70;100.00;95592.22;1049470;28;20281;-73
2021/07/06 00:38:03;;;;;;;;;;;;;;;15.70;100.00;95596.81;1049645;28;19913;-73
2021/07/06 00:38:33;;;;;;;;;;;;;;;15.71;100.00;95585.72;1049302;28;19916;-73
2021/07/06 00:39:04;;;;;;;;;;;;;;;15.71;100.00;95590.31;1049253;28;19944;-73
2021/07/06 00:39:34;;;;;;;;;;;;;;;15.72;100.00;95590.03;1049571;28;20289;-73
2021/07/06 00:40:05;;;;;;;;;;;;;;;15.72;100.00;95597.31;1049227;28;19904;-73
2021/07/06 00:40:35;;;;;;;;;;;;;;;15.73;100.00;95588.91;1049220;28;19916;-74
2021/07/06 00:41:05;;;;;;;;;;;;;;;15.75;100.00;95594.00;1049173;28;20003;-73
2021/07/06 00:41:37;;;;;;;;;;;;;;;15.74;100.00;95589.72;1049333;28;19961;-73
2021/07/06 00:42:10;;;;;;;;;;;;;;;15.75;100.00;95591.28;1049574;28;19908;-73
2021/07/06 00:42:41;;;;;;;;;;;;;;;15.73;100.00;95588.91;1049586;28;20016;-72
2021/07/06 00:43:11;;;;;;;;;;;;;;;15.72;100.00;95590.03;1049633;28;19957;-73
2021/07/06 00:43:42;;;;;;;;;;;;;;;15.72;100.00;95591.94;1049633;28;19916;-74
2021/07/06 00:44:13;;;;;;;;;;;;;;;15.74;100.00;95595.09;1049511;28;20587;-73
2021/07/06 00:44:44;;;;;;;;;;;;;;;15.76;100.00;95592.88;1049670;28;19924;-73
2021/07/06 00:45:15;;;;;;;;;;;;;;;15.71;100.00;95593.81;1049602;28;20283;-73
2021/07/06 00:45:45;;;;;;;;;;;;;;;15.74;100.00;95589.72;1049262;28;19925;-73
2021/07/06 00:46:15;;;;;;;;;;;;;;;15.71;100.00;95584.94;1049409;28;19919;-72
2021/07/06 00:46:46;;;;;;;;;;;;;;;15.75;100.00;95594.00;1049163;28;19967;-73
2021/07/06 00:47:19;;;;;;;;;;;;;;;15.68;100.00;95583.69;1049430;28;19920;-72
2021/07/06 00:47:49;;;;;;;;;;;;;;;15.67;100.00;95584.00;1049215;28;19912;-72
2021/07/06 00:48:19;;;;;;;;;;;;;;;15.69;100.00;95587.16;1049463;28;19912;-73
2021/07/06 00:48:50;;;;;;;;;;;;;;;15.70;100.00;95581.44;1049438;28;19909;-73
2021/07/06 00:49:20;;;;;;;;;;;;;;;15.71;100.00;95583.03;1049062;28;19924;-73
2021/07/06 00:49:50;;;;;;;;;;;;;;;15.72;100.00;95586.56;1050164;28;19945;-72
2021/07/06 00:50:22;;;;;;;;;;;;;;;15.70;100.00;95583.34;1050043;28;20258;-73
2021/07/06 00:50:52;;;;;;;;;;;;;;;15.70;100.00;95577.97;1049817;28;19912;-73
2021/07/06 00:51:22;;;;;;;;;;;;;;;15.71;100.00;95583.03;1050295;28;19912;-73
2021/07/06 00:51:53;;;;;;;;;;;;;;;15.71;100.00;95580.34;1050948;28;19913;-74
2021/07/06 00:52:23;;;;;;;;;;;;;;;15.72;100.00;95581.94;1050220;28;19944;-73
2021/07/06 00:52:53;;;;;;;;;;;;;;;15.71;100.00;95579.56;1050209;28;19909;-73
2021/07/06 00:53:23;;;;;;;;;;;;;;;15.68;100.00;95578.28;1050070;28;20554;-73
2021/07/06 00:53:54;;;;;;;;;;;;;;;15.65;100.00;95578.91;1050053;28;19962;-73
2021/07/06 00:54:24;;;;;;;;;;;;;;;15.64;100.00;95580.00;1049949;28;19930;-73
2021/07/06 00:54:54;;;;;;;;;;;;;;;15.64;100.00;95574.63;1049951;28;19913;-73
2021/07/06 00:55:25;;;;;;;;;;;;;;;15.65;100.00;95576.22;1049577;28;19915;-72
2021/07/06 00:55:56;;;;;;;;;;;;;;;15.67;100.00;95573.22;1045315;28;19912;-73
2021/07/06 00:56:27;;;;;;;;;;;;;;;15.63;100.00;95573.03;1041352;28;19919;-73
2021/07/06 00:56:58;;;;;;;;;;;;;;;15.64;100.00;95576.53;1037449;28;20345;-73
2021/07/06 00:57:31;;;;;;;;;;;;;;;15.64;100.00;95577.31;1041496;28;19971;-72
2021/07/06 00:58:01;;;;;;;;;;;;;;;15.65;100.00;95570.03;1046130;28;19908;-73
2021/07/06 00:58:31;;;;;;;;;;;;;;;15.65;100.00;95567.34;1049576;28;19909;-72
2021/07/06 00:59:01;;;;;;;;;;;;;;;15.65;100.00;95567.34;1049402;28;19952;-72
2021/07/06 00:59:32;;;;;;;;;;;;;;;15.64;100.00;95573.84;1049318;28;19912;-73
2021/07/06 01:00:09;;;;;;;;;;;;;;;15.66;100.00;95572.44;1049515;28;20377;-73
2021/07/06 01:00:39;;;;;;;;;;;;;;;15.67;100.00;95565.16;1049502;28;19912;-74
2021/07/06 01:01:09;;;;;;;;;;;;;;;15.67;100.00;95567.84;1049485;28;19919;-73
2021/07/06 01:01:40;;;;;;;;;;;;;;;15.66;100.00;95567.03;1049205;28;19985;-73
2021/07/06 01:02:10;;;;;;;;;;;;;;;15.65;100.00;95572.72;1049462;28;19919;-72
2021/07/06 01:02:40;;;;;;;;;;;;;;;15.67;100.00;95575.91;1049530;28;19912;-73
2021/07/06 01:03:11;;;;;;;;;;;;;;;15.69;100.00;95569.09;1049531;28;20007;-73
2021/07/06 01:03:41;;;;;;;;;;;;;;;15.71;100.00;95566.09;1049419;28;19912;-72
2021/07/06 01:04:12;;;;;;;;;;;;;;;15.73;100.00;95572.75;1049441;28;19999;-74
2021/07/06 01:04:42;;;;;;;;;;;;;;;15.71;100.00;95566.09;1049219;28;19913;-72
2021/07/06 01:05:14;;;;;;;;;;;;;;;15.68;100.00;95567.50;1049514;28;19986;-73
2021/07/06 01:05:44;;;;;;;;;;;;;;;15.69;100.00;95562.91;1049500;28;19913;-72
2021/07/06 01:06:14;;;;;;;;;;;;;;;15.71;100.00;95566.88;1049101;28;19908;-73
2021/07/06 01:06:45;;;;;;;;;;;;;;;15.71;100.00;95558.00;1049110;28;19920;-72
2021/07/06 01:07:15;;;;;;;;;;;;;;;15.70;100.00;95569.88;1049240;28;19915;-73
2021/07/06 01:07:46;;;;;;;;;;;;;;;15.71;100.00;95564.19;1049227;28;19934;-72
2021/07/06 01:08:16;;;;;;;;;;;;;;;15.68;100.00;95567.50;1049431;28;19912;-73
2021/07/06 01:08:46;;;;;;;;;;;;;;;15.69;100.00;95562.91;1049480;28;19920;-72
2021/07/06 01:09:17;;;;;;;;;;;;;;;15.72;100.00;95567.69;1049137;28;19939;-73
2021/07/06 01:09:47;;;;;;;;;;;;;;;15.72;100.00;95565.78;1044923;28;19913;-73
2021/07/06 01:10:17;;;;;;;;;;;;;;;15.71;100.00;95564.19;1045023;28;19909;-72
2021/07/06 01:10:48;;;;;;;;;;;;;;;15.74;100.00;95568.16;1044817;28;19982;-73
2021/07/06 01:11:18;;;;;;;;;;;;;;;15.75;100.00;95558.97;1049205;28;19944;-73
2021/07/06 01:11:48;;;;;;;;;;;;;;;15.75;100.00;95556.28;1049496;28;19912;-73
2021/07/06 01:12:19;;;;;;;;;;;;;;;15.73;100.00;95553.13;1053294;28;20269;-72
2021/07/06 01:12:49;;;;;;;;;;;;;;;15.74;100.00;95555.47;1049090;28;19908;-73
2021/07/06 01:13:19;;;;;;;;;;;;;;;15.74;100.00;95557.38;1049176;28;19995;-73
2021/07/06 01:13:50;;;;;;;;;;;;;;;15.71;100.00;95553.41;1049152;28;19912;-73
2021/07/06 01:14:22;;;;;;;;;;;;;;;15.70;100.00;95554.50;1049102;28;19908;-73
2021/07/06 01:14:52;;;;;;;;;;;;;;;15.70;100.00;95549.13;1049468;28;20288;-73
2021/07/06 01:15:23;;;;;;;;;;;;;;;15.69;100.00;95552.94;1049487;28;19916;-73
2021/07/06 01:15:53;;;;;;;;;;;;;;;15.69;100.00;95554.84;1049414;28;19962;-73
2021/07/06 01:16:23;;;;;;;;;;;;;;;15.65;100.00;95541.19;1049321;28;19912;-73
2021/07/06 01:16:54;;;;;;;;;;;;;;;15.64;100.00;95544.22;1049425;28;19908;-73
2021/07/06 01:17:27;;;;;;;;;;;;;;;15.62;100.00;95543.72;1049475;28;19959;-73
2021/07/06 01:17:58;;;;;;;;;;;;;;;15.61;100.00;95540.22;1049476;28;20488;-73
2021/07/06 01:18:28;;;;;;;;;;;;;;;15.64;100.00;95544.22;1049395;28;20045;-74
2021/07/06 01:18:59;;;;;;;;;;;;;;;15.60;100.00;95542.09;1049431;28;19916;-73
2021/07/06 01:19:29;;;;;;;;;;;;;;;15.61;100.00;95537.53;1053230;28;19912;-72
2021/07/06 01:20:04;;;;;;;;;;;;;;;15.61;100.00;95548.31;1049134;28;20001;-72
2021/07/06 01:20:35;;;;;;;;;;;;;;;15.60;100.00;95541.31;1049173;28;19959;-73
2021/07/06 01:21:05;;;;;;;;;;;;;;;15.62;100.00;95538.31;1049217;28;20230;-72
2021/07/06 01:21:36;;;;;;;;;;;;;;;15.59;100.00;95537.81;1049110;28;19921;-73
2021/07/06 01:22:06;;;;;;;;;;;;;;;15.59;100.00;95537.81;1049509;28;19995;-73
2021/07/06 01:22:37;;;;;;;;;;;;;;;15.57;100.00;95534.66;1049406;28;19969;-73
2021/07/06 01:23:07;;;;;;;;;;;;;;;15.59;100.00;95529.75;1049452;28;19973;-73
2021/07/06 01:23:37;;;;;;;;;;;;;;;15.57;100.00;95531.97;1049385;28;20010;-72
2021/07/06 01:24:08;;;;;;;;;;;;;;;15.54;100.00;95532.56;1049366;28;20008;-73
2021/07/06 01:24:38;;;;;;;;;;;;;;;15.54;100.00;95546.03;1049263;28;19924;-72
2021/07/06 01:25:09;;;;;;;;;;;;;;;15.55;100.00;95533.38;1049440;28;20018;-72
2021/07/06 01:25:39;;;;;;;;;;;;;;;15.52;100.00;95528.63;1052715;28;20396;-73
2021/07/06 01:26:09;;;;;;;;;;;;;;;15.49;100.00;95527.34;1049214;28;20001;-72
2021/07/06 01:26:41;;;;;;;;;;;;;;;15.47;100.00;95532.25;1049029;28;19955;-74
2021/07/06 01:27:11;;;;;;;;;;;;;;;15.48;100.00;95533.84;1049014;28;19959;-72
2021/07/06 01:27:41;;;;;;;;;;;;;;;15.49;100.00;95531.94;1046119;28;20361;-73
2021/07/06 01:28:11;;;;;;;;;;;;;;;15.49;100.00;95529.22;1049328;28;19924;-73
2021/07/06 01:28:42;;;;;;;;;;;;;;;15.46;100.00;95530.66;1049371;28;19970;-72
2021/07/06 01:29:13;;;;;;;;;;;;;;;15.45;100.00;95531.75;1049365;28;19912;-72
2021/07/06 01:29:43;;;;;;;;;;;;;;;15.45;100.00;95529.06;1049338;28;19951;-72
2021/07/06 01:30:14;;;;;;;;;;;;;;;15.44;100.00;95527.47;1049387;28;19948;-72
2021/07/06 01:30:44;;;;;;;;;;;;;;;15.43;100.00;95525.88;1049398;28;20049;-72
2021/07/06 01:31:14;;;;;;;;;;;;;;;15.42;100.00;95527.00;1049130;28;19920;-72
2021/07/06 01:31:48;;;;;;;;;;;;;;;15.42;100.00;95521.63;1049371;28;19917;-72
2021/07/06 01:32:18;;;;;;;;;;;;;;;15.43;100.00;95525.88;1049335;28;19908;-72
2021/07/06 01:32:49;;;;;;;;;;;;;;;15.44;100.00;95516.69;1049301;28;19947;-72
2021/07/06 01:33:20;;;;;;;;;;;;;;;15.41;100.00;95519.25;1049440;28;19910;-72
2021/07/06 01:33:50;;;;;;;;;;;;;;;15.39;100.00;95519.53;1049358;28;19913;-72
2021/07/06 01:34:21;;;;;;;;;;;;;;;15.41;100.00;95519.25;1048985;28;19908;-73
2021/07/06 01:34:51;;;;;;;;;;;;;;;15.40;100.00;95517.63;1048906;28;19919;-71
2021/07/06 01:35:22;;;;;;;;;;;;;;;15.40;100.00;95514.94;1049054;28;19920;-72
2021/07/06 01:35:52;;;;;;;;;;;;;;;15.40;100.00;95507.66;1048875;28;19904;-72
2021/07/06 01:36:23;;;;;;;;;;;;;;;15.38;100.00;95512.56;1049289;28;19913;-73
2021/07/06 01:36:54;;;;;;;;;;;;;;;15.36;100.00;95503.22;1049415;28;19904;-73
2021/07/06 01:37:25;;;;;;;;;;;;;;;15.30;100.00;95507.94;1049331;28;19904;-73
2021/07/06 01:37:56;;;;;;;;;;;;;;;15.29;100.00;95509.03;1049260;28;19912;-72
2021/07/06 01:38:27;;;;;;;;;;;;;;;15.29;100.00;95506.34;1049347;28;19915;-72
2021/07/06 01:38:57;;;;;;;;;;;;;;;15.29;100.00;95509.03;1049370;28;20371;-73
2021/07/06 01:39:29;;;;;;;;;;;;;;;15.31;100.00;95506.84;1049262;28;20357;-72
2021/07/06 01:40:00;;;;;;;;;;;;;;;15.26;100.00;95505.09;1049341;28;19904;-73
2021/07/06 01:40:30;;;;;;;;;;;;;;;15.26;100.00;95504.31;1049306;28;20285;-72
2021/07/06 01:41:00;;;;;;;;;;;;;;;15.21;100.00;95505.22;1048867;28;19901;-73
2021/07/06 01:41:31;;;;;;;;;;;;;;;15.24;100.00;95501.09;1048934;28;19909;-72
2021/07/06 01:42:01;;;;;;;;;;;;;;;15.22;100.00;95506.81;1048953;28;19946;-72
2021/07/06 01:42:32;;;;;;;;;;;;;;;15.22;100.00;95511.41;1049042;28;19917;-73
2021/07/06 01:43:02;;;;;;;;;;;;;;;15.24;100.00;95509.97;1049278;28;19908;-73
2021/07/06 01:43:33;;;;;;;;;;;;;;;15.24;100.00;95506.50;1048921;28;19908;-73
2021/07/06 01:44:03;;;;;;;;;;;;;;;15.22;100.00;95508.72;1048988;28;20356;-71
2021/07/06 01:44:33;;;;;;;;;;;;;;;15.23;100.00;95510.28;1048934;28;19974;-73
2021/07/06 01:45:11;;;;;;;;;;;;;;;15.24;100.00;95507.28;1049023;28;20289;-72
2021/07/06 01:45:41;;;;;;;;;;;;;;;15.24;100.00;95509.97;1048902;28;19913;-72
2021/07/06 01:46:11;;;;;;;;;;;;;;;15.22;100.00;95506.03;1049328;28;19916;-72
2021/07/06 01:46:42;;;;;;;;;;;;;;;15.23;100.00;95513.78;1049319;28;19963;-73
2021/07/06 01:47:12;;;;;;;;;;;;;;;15.22;100.00;95520.28;1049307;28;20296;-73
2021/07/06 01:47:43;;;;;;;;;;;;;;;15.21;100.00;95507.13;1049289;28;19920;-73
2021/07/06 01:48:13;;;;;;;;;;;;;;;15.20;100.00;95514.41;1049256;28;19908;-73
2021/07/06 01:48:43;;;;;;;;;;;;;;;15.23;100.00;95510.28;1049286;28;19954;-74
2021/07/06 01:49:14;;;;;;;;;;;;;;;15.24;100.00;95509.19;1049319;28;19935;-73
2021/07/06 01:49:44;;;;;;;;;;;;;;;15.21;100.00;95512.53;1049180;28;20064;-73
2021/07/06 01:50:15;;;;;;;;;;;;;;;15.23;100.00;95518.38;1049290;28;19905;-73
2021/07/06 01:50:46;;;;;;;;;;;;;;;15.23;100.00;95516.47;1049182;28;19913;-72
2021/07/06 01:51:16;;;;;;;;;;;;;;;15.27;100.00;95508.56;1049323;28;19920;-73
2021/07/06 01:51:46;;;;;;;;;;;;;;;15.25;100.00;95508.06;1049296;28;19919;-73
2021/07/06 01:52:17;;;;;;;;;;;;;;;15.26;100.00;95510.47;1049302;28;19909;-73
2021/07/06 01:52:51;;;;;;;;;;;;;;;15.27;100.00;95516.66;1049357;28;19913;-73
2021/07/06 01:53:22;;;;;;;;;;;;;;;15.29;100.00;95512.53;1048898;28;19923;-73
2021/07/06 01:53:52;;;;;;;;;;;;;;;15.30;100.00;95516.00;1048967;28;19913;-73
2021/07/06 01:54:22;;;;;;;;;;;;;;;15.31;100.00;95512.25;1048997;28;20365;-73
2021/07/06 01:54:53;;;;;;;;;;;;;;;15.32;100.00;95514.63;1048985;28;19912;-73
2021/07/06 01:55:24;;;;;;;;;;;;;;;15.29;100.00;95509.84;1049316;28;19977;-73
2021/07/06 01:55:55;;;;;;;;;;;;;;;15.30;100.00;95516.00;1049221;28;19912;-73
2021/07/06 01:56:25;;;;;;;;;;;;;;;15.30;100.00;95518.69;1049356;28;19916;-73
2021/07/06 01:56:55;;;;;;;;;;;;;;;15.29;100.00;95517.13;1049165;28;20288;-73
2021/07/06 01:57:26;;;;;;;;;;;;;;;15.27;100.00;95506.69;1049221;28;19912;-73
2021/07/06 01:57:56;;;;;;;;;;;;;;;15.30;100.00;95516.00;1049190;28;19909;-72
2021/07/06 01:58:27;;;;;;;;;;;;;;;15.29;100.00;95512.53;1049238;28;19917;-73
2021/07/06 01:58:58;;;;;;;;;;;;;;;15.29;100.00;95509.84;1049220;28;19951;-73
2021/07/06 01:59:28;;;;;;;;;;;;;;;15.31;100.00;95510.34;1049272;28;19913;-72
2021/07/06 01:59:58;;;;;;;;;;;;;;;15.31;100.00;95509.53;1049063;28;19908;-73
2021/07/06 02:00:29;;;;;;;;;;;;;;;15.27;100.00;95506.69;1049236;28;19912;-74
2021/07/06 02:01:00;;;;;;;;;;;;;;;15.29;100.00;95506.34;1048858;28;20074;-72
2021/07/06 02:01:30;;;;;;;;;;;;;;;15.28;100.00;95499.38;1048901;28;19919;-73
2021/07/06 02:02:00;;;;;;;;;;;;;;;15.28;100.00;95504.78;1049153;28;20207;-72
2021/07/06 02:02:31;;;;;;;;;;;;;;;15.19;100.00;95506.63;1049238;28;19951;-72
2021/07/06 02:03:01;;;;;;;;;;;;;;;15.19;100.00;95510.13;1049241;28;20262;-73
2021/07/06 02:03:32;;;;;;;;;;;;;;;15.18;100.00;95508.53;1044715;28;19913;-72
2021/07/06 02:04:03;;;;;;;;;;;;;;;15.18;100.00;95507.75;1040699;28;19920;-72
2021/07/06 02:04:33;;;;;;;;;;;;;;;15.17;100.00;95501.56;1040572;28;20390;-73
2021/07/06 02:05:08;;;;;;;;;;;;;;;15.14;100.00;95504.06;1040866;28;19944;-72
2021/07/06 02:05:42;;;;;;;;;;;;;;;15.14;100.00;95501.38;1048924;28;19919;-73
2021/07/06 02:06:12;;;;;;;;;;;;;;;15.13;100.00;95499.81;1049120;28;19913;-73
2021/07/06 02:06:43;;;;;;;;;;;;;;;15.15;100.00;95500.28;1057318;28;19915;-72
2021/07/06 02:07:13;;;;;;;;;;;;;;;15.15;100.00;95500.28;1057376;28;19953;-73
2021/07/06 02:07:43;;;;;;;;;;;;;;;15.16;100.00;95496.50;1057339;28;19916;-72
2021/07/06 02:08:15;;;;;;;;;;;;;;;15.17;100.00;95498.88;1057278;28;19916;-73
2021/07/06 02:08:45;;;;;;;;;;;;;;;15.17;100.00;95498.09;1048860;28;19912;-73
2021/07/06 02:09:16;;;;;;;;;;;;;;;15.17;100.00;95496.19;1048902;28;19908;-73
2021/07/06 02:09:46;;;;;;;;;;;;;;;15.21;100.00;95490.97;1048944;28;19913;-73
2021/07/06 02:10:16;;;;;;;;;;;;;;;15.21;100.00;95502.53;1048659;28;20293;-74
2021/07/06 02:10:48;;;;;;;;;;;;;;;15.21;100.00;95494.47;1049218;28;19920;-73
2021/07/06 02:11:18;;;;;;;;;;;;;;;15.24;100.00;95493.03;1048859;28;20369;-73
2021/07/06 02:11:48;;;;;;;;;;;;;;;15.23;100.00;95491.44;1048899;28;19913;-73
2021/07/06 02:12:19;;;;;;;;;;;;;;;15.23;100.00;95494.16;1048844;28;19916;-74
2021/07/06 02:12:49;;;;;;;;;;;;;;;15.22;100.00;95493.34;1048779;28;19912;-73
2021/07/06 02:13:20;;;;;;;;;;;;;;;15.22;100.00;95490.66;1049221;28;19919;-73
2021/07/06 02:13:51;;;;;;;;;;;;;;;15.25;100.00;95494.63;1049235;28;20392;-73
2021/07/06 02:14:21;;;;;;;;;;;;;;;15.24;100.00;95493.03;1049251;28;19919;-72
2021/07/06 02:14:51;;;;;;;;;;;;;;;15.24;100.00;95484.97;1049095;28;19912;-72
2021/07/06 02:15:21;;;;;;;;;;;;;;;15.21;100.00;95489.09;1049104;28;19909;-72
2021/07/06 02:15:52;;;;;;;;;;;;;;;15.22;100.00;95492.56;1048918;28;19913;-73
2021/07/06 02:16:23;;;;;;;;;;;;;;;15.21;100.00;95494.47;1048829;28;20007;-73
2021/07/06 02:16:53;;;;;;;;;;;;;;;15.21;100.00;95488.28;1048805;28;19931;-73
2021/07/06 02:17:23;;;;;;;;;;;;;;;15.17;100.00;95496.19;1048935;28;19904;-73
2021/07/06 02:17:54;;;;;;;;;;;;;;;15.17;100.00;95490.00;1049133;28;20289;-73
2021/07/06 02:18:27;;;;;;;;;;;;;;;15.14;100.00;95491.41;1049211;28;19928;-73
2021/07/06 02:18:57;;;;;;;;;;;;;;;15.16;100.00;95493.81;1049171;28;20022;-73
2021/07/06 02:19:27;;;;;;;;;;;;;;;15.15;100.00;95498.41;1049090;28;19916;-72
2021/07/06 02:19:57;;;;;;;;;;;;;;;15.13;100.00;95494.41;1049226;28;19908;-73
2021/07/06 02:20:28;;;;;;;;;;;;;;;15.13;100.00;95489.84;1049151;28;19917;-72
2021/07/06 02:20:58;;;;;;;;;;;;;;;15.15;100.00;95487.63;1049153;28;19916;-73
2021/07/06 02:21:29;;;;;;;;;;;;;;;15.16;100.00;95497.28;1049188;28;20342;-73
2021/07/06 02:21:59;;;;;;;;;;;;;;;15.17;100.00;95493.50;1049224;28;20432;-73
2021/07/06 02:22:29;;;;;;;;;;;;;;;15.14;100.00;95496.78;1049187;28;20026;-73
2021/07/06 02:23:00;;;;;;;;;;;;;;;15.13;100.00;95494.41;1049081;28;19957;-73
2021/07/06 02:23:31;;;;;;;;;;;;;;;15.15;100.00;95489.50;1048922;28;19916;-73
2021/07/06 02:24:01;;;;;;;;;;;;;;;15.15;100.00;95493.03;1048890;28;19912;-73
2021/07/06 02:24:31;;;;;;;;;;;;;;;15.17;100.00;95490.00;1048810;28;19923;-74
2021/07/06 02:25:02;;;;;;;;;;;;;;;15.15;100.00;95487.63;1048798;28;20451;-73
2021/07/06 02:25:32;;;;;;;;;;;;;;;15.16;100.00;95491.13;1049167;28;19917;-72
2021/07/06 02:26:04;;;;;;;;;;;;;;;15.16;100.00;95491.13;1049144;28;19901;-72
2021/07/06 02:26:34;;;;;;;;;;;;;;;15.13;100.00;95489.84;1049160;28;19917;-73
2021/07/06 02:27:04;;;;;;;;;;;;;;;15.11;100.00;95488.56;1049070;28;20350;-73
2021/07/06 02:27:35;;;;;;;;;;;;;;;15.11;100.00;95488.56;1049178;28;19917;-73
2021/07/06 02:28:05;;;;;;;;;;;;;;;15.07;100.00;95486.50;1049200;28;19974;-73
2021/07/06 02:28:35;;;;;;;;;;;;;;;15.04;100.00;95489.78;1049148;28;19912;-74
2021/07/06 02:29:06;;;;;;;;;;;;;;;15.02;100.00;95483.94;1048799;28;19950;-73
2021/07/06 02:29:36;;;;;;;;;;;;;;;15.03;100.00;95484.72;1048881;28;19916;-73
2021/07/06 02:30:08;;;;;;;;;;;;;;;15.02;100.00;95483.94;1044636;28;19908;-73
2021/07/06 02:30:38;;;;;;;;;;;;;;;14.99;100.00;95483.75;1044775;28;19920;-73
2021/07/06 02:31:08;;;;;;;;;;;;;;;14.97;100.00;95486.75;1044670;28;20321;-73
2021/07/06 02:31:39;;;;;;;;;;;;;;;15.03;100.00;95490.09;1040667;28;20397;-74
2021/07/06 02:32:09;;;;;;;;;;;;;;;15.02;100.00;95483.13;1048812;28;19904;-73
2021/07/06 02:32:39;;;;;;;;;;;;;;;15.01;100.00;95486.94;1048802;28;19917;-73
2021/07/06 02:33:10;;;;;;;;;;;;;;;15.01;100.00;95482.34;1048805;28;19990;-73
2021/07/06 02:33:40;;;;;;;;;;;;;;;15.00;100.00;95485.34;1048868;28;20278;-73
2021/07/06 02:34:10;;;;;;;;;;;;;;;14.99;100.00;95483.75;1049142;28;19913;-73
2021/07/06 02:34:41;;;;;;;;;;;;;;;14.99;100.00;95481.06;1048785;28;20297;-73
2021/07/06 02:35:11;;;;;;;;;;;;;;;14.99;100.00;95481.84;1048860;28;19927;-73
2021/07/06 02:35:41;;;;;;;;;;;;;;;14.98;100.00;95482.97;1049121;28;19924;-72
2021/07/06 02:36:11;;;;;;;;;;;;;;;15.00;100.00;95478.06;1049077;28;19916;-72
2021/07/06 02:36:42;;;;;;;;;;;;;;;15.01;100.00;95476.97;1049136;28;19924;-72
2021/07/06 02:37:12;;;;;;;;;;;;;;;15.01;100.00;95479.66;1049075;28;20388;-73